Time;durP1;ratioP1;P1;durP2;ratioP2;P2;SDS_P1;SDS_P2;PMS_P1;PMS_P2;Temp;Humidity;BMP_temperature;BMP_pressure;BME280_temperature;BME280_humidity;BME280_pressure;Samples;Min_cycle;Max_cycle;Signal;HPM_P1;HPM_P2
2022/07/31 00:00:18;;;;;;;2.80;1.63;;;;;;;;;;5031828;28;21048;-16
2022/07/31 00:02:45;;;;;;;3.03;1.90;;;;;;;;;;5031401;28;20892;-16
2022/07/31 00:05:12;;;;;;;3.05;1.90;;;;;;;;;;5031831;28;20988;-16
2022/07/31 00:07:40;;;;;;;2.40;1.90;;;;;;;;;;5027225;28;20249;-16
2022/07/31 00:10:07;;;;;;;1.75;1.60;;;;;;;;;;5031326;28;20226;-16
2022/07/31 00:12:36;;;;;;;2.03;1.63;;;;;;;;;;5031158;28;20226;-16
2022/07/31 00:15:05;;;;;;;2.53;1.73;;;;;;;;;;5031617;28;20266;-16
2022/07/31 00:17:32;;;;;;;2.65;1.90;;;;;;;;;;5019948;28;20231;-16
2022/07/31 00:19:59;;;;;;;2.00;1.80;;;;;;;;;;5031712;28;20337;-16
2022/07/31 00:22:27;;;;;;;1.70;1.60;;;;;;;;;;5030083;28;20234;-16
2022/07/31 00:24:54;;;;;;;2.70;1.90;;;;;;;;;;5030505;28;20223;-16
2022/07/31 00:27:23;;;;;;;2.75;1.70;;;;;;;;;;5031095;28;20329;-16
2022/07/31 00:29:52;;;;;;;2.53;1.50;;;;;;;;;;5031306;28;20701;-16
2022/07/31 00:32:19;;;;;;;2.58;1.90;;;;;;;;;;5031396;28;20223;-16
2022/07/31 00:34:46;;;;;;;1.98;1.55;;;;;;;;;;5030709;28;20245;-16
2022/07/31 00:37:14;;;;;;;2.00;1.73;;;;;;;;;;5030617;28;20321;-16
2022/07/31 00:39:41;;;;;;;2.45;1.75;;;;;;;;;;5031361;28;20227;-16
2022/07/31 00:42:16;;;;;;;2.95;1.50;;;;;;;;;;5031128;28;20226;-16
2022/07/31 00:44:43;;;;;;;3.45;1.77;;;;;;;;;;5031094;28;20681;-16
2022/07/31 00:47:15;;;;;;;2.20;1.70;;;;;;;;;;5030126;28;20239;-16
2022/07/31 00:49:43;;;;;;;4.20;1.50;;;;;;;;;;5030542;28;20293;-16
2022/07/31 00:52:10;;;;;;;2.00;1.60;;;;;;;;;;5030640;28;20223;-16
2022/07/31 00:54:38;;;;;;;2.10;1.90;;;;;;;;;;5031017;28;20249;-16
2022/07/31 00:57:05;;;;;;;2.95;1.58;;;;;;;;;;5030159;28;20222;-16
2022/07/31 00:59:33;;;;;;;3.17;1.92;;;;;;;;;;5030851;28;20315;-16
2022/07/31 01:02:00;;;;;;;2.15;1.55;;;;;;;;;;5030955;28;20233;-16
2022/07/31 01:04:29;;;;;;;1.65;1.42;;;;;;;;;;5030672;28;20222;-16
2022/07/31 01:06:59;;;;;;;3.35;1.80;;;;;;;;;;5029997;28;20241;-16
2022/07/31 01:09:27;;;;;;;1.95;1.70;;;;;;;;;;5030068;28;20255;-16
2022/07/31 01:11:57;;;;;;;2.35;1.60;;;;;;;;;;5030199;28;20222;-16
2022/07/31 01:14:26;;;;;;;2.15;1.63;;;;;;;;;;5028906;28;20274;-16
2022/07/31 01:16:53;;;;;;;2.47;1.85;;;;;;;;;;5018483;28;20226;-16
2022/07/31 01:19:22;;;;;;;2.63;1.77;;;;;;;;;;5028213;28;20517;-16
2022/07/31 01:22:08;;;;;;;2.20;1.70;;;;;;;;;;5028552;28;20247;-16
2022/07/31 01:24:58;;;;;;;1.85;1.70;;;;;;;;;;5024518;28;20780;-16
2022/07/31 01:27:26;;;;;;;3.45;1.80;;;;;;;;;;5030359;28;20249;-16
2022/07/31 01:29:55;;;;;;;2.03;1.70;;;;;;;;;;5030530;28;20822;-16
2022/07/31 01:32:24;;;;;;;2.42;1.50;;;;;;;;;;5030427;28;20670;-16
2022/07/31 01:34:54;;;;;;;2.15;1.60;;;;;;;;;;5030292;28;20235;-16
2022/07/31 01:37:23;;;;;;;3.22;1.70;;;;;;;;;;5026528;28;20233;-15
2022/07/31 01:39:50;;;;;;;2.33;1.88;;;;;;;;;;5030457;28;20227;-16
2022/07/31 01:42:18;;;;;;;2.05;1.80;;;;;;;;;;5029171;28;20721;-16
2022/07/31 01:44:46;;;;;;;2.85;2.10;;;;;;;;;;5030414;28;20703;-16
2022/07/31 01:47:17;;;;;;;2.90;1.65;;;;;;;;;;5029667;28;20272;-16
2022/07/31 01:49:44;;;;;;;2.40;1.65;;;;;;;;;;5030236;28;20981;-16
2022/07/31 01:52:12;;;;;;;2.10;1.65;;;;;;;;;;5030212;28;20251;-16
2022/07/31 01:54:39;;;;;;;2.03;1.63;;;;;;;;;;5030272;28;20333;-16
2022/07/31 01:57:07;;;;;;;1.92;1.50;;;;;;;;;;5029751;28;20788;-16
2022/07/31 01:59:35;;;;;;;2.28;1.70;;;;;;;;;;5029958;28;20717;-16
2022/07/31 02:02:03;;;;;;;2.05;1.95;;;;;;;;;;5029637;28;20992;-16
2022/07/31 02:04:33;;;;;;;1.80;1.63;;;;;;;;;;5033278;28;20262;-16
2022/07/31 02:07:02;;;;;;;2.40;1.73;;;;;;;;;;5028179;28;20239;-16
2022/07/31 02:09:30;;;;;;;3.10;1.83;;;;;;;;;;5032428;28;20235;-15
2022/07/31 02:11:57;;;;;;;1.95;1.75;;;;;;;;;;5033719;28;20321;-16
2022/07/31 02:14:25;;;;;;;3.05;1.90;;;;;;;;;;5033459;28;21050;-16
2022/07/31 02:16:52;;;;;;;2.00;1.70;;;;;;;;;;5033160;28;20274;-15
2022/07/31 02:19:19;;;;;;;1.90;1.67;;;;;;;;;;5031059;28;20233;-16
2022/07/31 02:21:50;;;;;;;1.73;1.40;;;;;;;;;;5032617;28;20373;-16
2022/07/31 02:24:18;;;;;;;2.28;1.90;;;;;;;;;;5033665;28;20238;-15
2022/07/31 02:26:45;;;;;;;3.45;2.08;;;;;;;;;;5032431;28;20330;-16
2022/07/31 02:29:13;;;;;;;3.53;1.73;;;;;;;;;;5034172;28;20269;-16
2022/07/31 02:31:47;;;;;;;2.67;1.75;;;;;;;;;;5027420;28;20231;-16
2022/07/31 02:34:28;;;;;;;1.98;1.77;;;;;;;;;;5033691;28;20266;-16
2022/07/31 02:36:58;;;;;;;2.70;1.95;;;;;;;;;;5033100;28;20281;-16
2022/07/31 02:39:25;;;;;;;1.98;1.77;;;;;;;;;;5032897;28;20946;-15
2022/07/31 02:41:59;;;;;;;2.10;1.58;;;;;;;;;;5032037;28;20235;-16
2022/07/31 02:44:28;;;;;;;1.83;1.73;;;;;;;;;;5032875;28;20710;-16
2022/07/31 02:46:56;;;;;;;2.03;1.60;;;;;;;;;;5032680;28;20259;-15
2022/07/31 02:49:24;;;;;;;2.72;1.80;;;;;;;;;;5032886;28;20235;-16
2022/07/31 02:51:51;;;;;;;2.53;2.33;;;;;;;;;;5032605;28;20230;-16
2022/07/31 02:54:20;;;;;;;2.13;1.58;;;;;;;;;;5031813;28;20239;-15
2022/07/31 02:56:47;;;;;;;2.08;1.50;;;;;;;;;;5032371;28;20227;-16
2022/07/31 02:59:15;;;;;;;2.22;1.80;;;;;;;;;;5032787;28;20694;-16
2022/07/31 03:01:42;;;;;;;1.92;1.75;;;;;;;;;;5032553;28;20553;-15
2022/07/31 03:04:10;;;;;;;2.45;1.73;;;;;;;;;;5032241;28;20231;-16
2022/07/31 03:06:37;;;;;;;2.10;1.55;;;;;;;;;;5032560;28;20322;-16
2022/07/31 03:09:04;;;;;;;2.13;1.80;;;;;;;;;;5032661;28;20732;-16
2022/07/31 03:11:33;;;;;;;3.35;1.85;;;;;;;;;;5032688;28;20250;-16
2022/07/31 03:14:01;;;;;;;2.67;1.63;;;;;;;;;;5032537;28;20676;-16
2022/07/31 03:16:28;;;;;;;2.55;2.00;;;;;;;;;;5031347;28;20233;-16
2022/07/31 03:18:55;;;;;;;1.83;1.73;;;;;;;;;;5032321;28;20731;-16
2022/07/31 03:21:23;;;;;;;2.70;2.05;;;;;;;;;;5032881;28;20246;-16
2022/07/31 03:23:50;;;;;;;2.95;2.20;;;;;;;;;;5031602;28;20290;-16
2022/07/31 03:26:17;;;;;;;2.53;1.85;;;;;;;;;;5026634;28;20233;-15
2022/07/31 03:28:46;;;;;;;3.20;1.90;;;;;;;;;;5025117;28;20249;-16
2022/07/31 03:31:14;;;;;;;2.60;1.70;;;;;;;;;;5032047;28;20235;-16
2022/07/31 03:33:42;;;;;;;2.60;2.03;;;;;;;;;;5032884;28;20231;-16
2022/07/31 03:36:09;;;;;;;2.20;1.80;;;;;;;;;;5031745;28;20747;-15
2022/07/31 03:38:37;;;;;;;2.58;2.05;;;;;;;;;;5021227;28;20736;-16
2022/07/31 03:41:10;;;;;;;3.50;2.05;;;;;;;;;;5031669;28;20239;-15
2022/07/31 03:43:37;;;;;;;2.10;1.63;;;;;;;;;;5032405;28;20331;-16
2022/07/31 03:46:15;;;;;;;3.40;2.08;;;;;;;;;;5032030;28;20231;-15
2022/07/31 03:48:42;;;;;;;2.90;2.03;;;;;;;;;;5030957;28;20710;-16
2022/07/31 03:51:10;;;;;;;2.58;1.98;;;;;;;;;;5032469;28;20230;-15
2022/07/31 03:53:37;;;;;;;2.28;1.92;;;;;;;;;;5031994;28;20241;-16
2022/07/31 03:56:05;;;;;;;3.13;2.17;;;;;;;;;;5031545;28;20318;-16
2022/07/31 03:58:32;;;;;;;1.88;1.73;;;;;;;;;;5031361;28;20683;-16
2022/07/31 04:01:00;;;;;;;1.98;1.75;;;;;;;;;;5031651;28;20245;-16
2022/07/31 04:03:32;;;;;;;4.07;1.83;;;;;;;;;;5031760;28;20235;-16
2022/07/31 04:05:59;;;;;;;2.25;1.70;;;;;;;;;;5031000;28;20892;-16
2022/07/31 04:08:26;;;;;;;2.58;1.88;;;;;;;;;;5031543;28;20243;-16
2022/07/31 04:10:54;;;;;;;2.33;1.90;;;;;;;;;;5030547;28;20230;-16
2022/07/31 04:13:21;;;;;;;2.47;1.77;;;;;;;;;;5031529;28;20231;-16
2022/07/31 04:15:49;;;;;;;2.88;2.08;;;;;;;;;;5031450;28;20240;-16
2022/07/31 04:18:16;;;;;;;2.63;1.98;;;;;;;;;;5031877;28;20934;-15
2022/07/31 04:20:45;;;;;;;2.00;1.80;;;;;;;;;;5030448;28;21065;-16
2022/07/31 04:23:12;;;;;;;2.13;1.80;;;;;;;;;;5030997;28;20247;-15
2022/07/31 04:25:39;;;;;;;2.20;1.90;;;;;;;;;;5029583;28;20231;-15
2022/07/31 04:28:07;;;;;;;2.05;1.80;;;;;;;;;;5023337;28;20235;-16
2022/07/31 04:30:34;;;;;;;4.97;2.00;;;;;;;;;;5026898;28;20318;-16
2022/07/31 04:33:02;;;;;;;2.08;1.80;;;;;;;;;;5030436;28;20229;-16
2022/07/31 04:35:30;;;;;;;3.08;2.28;;;;;;;;;;5031428;28;20239;-16
2022/07/31 04:37:58;;;;;;;1.90;1.70;;;;;;;;;;5031279;28;20234;-15
2022/07/31 04:40:26;;;;;;;3.10;1.67;;;;;;;;;;5031708;28;20238;-16
2022/07/31 04:42:54;;;;;;;2.47;1.98;;;;;;;;;;5034311;28;20856;-15
2022/07/31 04:45:21;;;;;;;2.50;2.03;;;;;;;;;;5031016;28;20231;-16
2022/07/31 04:47:49;;;;;;;2.50;1.83;;;;;;;;;;5031274;28;20351;-16
2022/07/31 04:50:16;;;;;;;2.22;1.90;;;;;;;;;;5031030;28;20249;-16
2022/07/31 04:52:43;;;;;;;2.65;2.03;;;;;;;;;;5030970;28;20314;-16
2022/07/31 04:55:12;;;;;;;3.85;2.28;;;;;;;;;;5029829;28;20242;-16
2022/07/31 04:57:40;;;;;;;2.83;2.20;;;;;;;;;;5025074;28;20232;-16
2022/07/31 05:00:09;;;;;;;4.25;2.50;;;;;;;;;;5030907;28;20229;-16
2022/07/31 05:02:36;;;;;;;2.80;2.17;;;;;;;;;;5031166;28;20230;-15
2022/07/31 05:05:04;;;;;;;2.45;2.17;;;;;;;;;;5030120;28;20231;-15
2022/07/31 05:07:31;;;;;;;2.90;2.38;;;;;;;;;;5030997;28;20266;-16
2022/07/31 05:09:59;;;;;;;2.17;1.92;;;;;;;;;;5030707;28;20235;-15
2022/07/31 05:12:27;;;;;;;3.17;2.03;;;;;;;;;;5030641;28;20720;-16
2022/07/31 05:14:55;;;;;;;2.70;2.47;;;;;;;;;;5030897;28;21036;-16
2022/07/31 05:17:22;;;;;;;3.10;2.30;;;;;;;;;;5029397;28;20231;-16
2022/07/31 05:19:49;;;;;;;2.53;2.10;;;;;;;;;;5030435;28;20231;-16
2022/07/31 05:22:17;;;;;;;2.13;2.00;;;;;;;;;;5029920;28;20238;-16
2022/07/31 05:24:45;;;;;;;2.55;2.03;;;;;;;;;;5030877;28;20274;-16
2022/07/31 05:27:12;;;;;;;2.88;2.20;;;;;;;;;;5029489;28;20245;-15
2022/07/31 05:29:41;;;;;;;2.75;2.20;;;;;;;;;;5030291;28;20246;-15
2022/07/31 05:32:08;;;;;;;3.83;2.20;;;;;;;;;;5030283;28;20261;-16
2022/07/31 05:34:36;;;;;;;4.32;2.75;;;;;;;;;;5030562;28;20230;-16
2022/07/31 05:37:03;;;;;;;4.72;2.08;;;;;;;;;;5032077;28;20230;-15
2022/07/31 05:39:30;;;;;;;2.90;2.25;;;;;;;;;;5033404;28;20226;-15
2022/07/31 05:41:58;;;;;;;4.18;2.50;;;;;;;;;;5033836;28;20245;-15
2022/07/31 05:44:25;;;;;;;2.83;2.30;;;;;;;;;;5033312;28;20231;-16
2022/07/31 05:46:54;;;;;;;4.75;2.40;;;;;;;;;;5033725;28;20329;-16
2022/07/31 05:49:20;;;;;;;4.43;3.20;;;;;;;;;;5033689;28;20724;-16
2022/07/31 05:51:52;;;;;;;2.90;2.70;;;;;;;;;;5033755;28;20227;-16
2022/07/31 05:54:20;;;;;;;3.60;2.58;;;;;;;;;;5033720;28;20239;-16
2022/07/31 05:56:47;;;;;;;4.88;2.88;;;;;;;;;;5026676;28;20233;-15
2022/07/31 05:59:15;;;;;;;9.20;3.20;;;;;;;;;;5032856;28;20256;-16
2022/07/31 06:01:42;;;;;;;4.10;3.05;;;;;;;;;;5033528;28;20235;-15
2022/07/31 06:04:11;;;;;;;3.35;2.83;;;;;;;;;;5033425;28;20804;-15
2022/07/31 06:06:38;;;;;;;3.38;3.08;;;;;;;;;;5033523;28;20233;-15
2022/07/31 06:09:05;;;;;;;5.40;3.03;;;;;;;;;;5033164;28;20230;-16
2022/07/31 06:11:33;;;;;;;4.43;3.42;;;;;;;;;;5032501;28;20227;-16
2022/07/31 06:14:00;;;;;;;5.13;3.03;;;;;;;;;;5019505;28;20670;-16
2022/07/31 06:16:28;;;;;;;4.25;2.90;;;;;;;;;;5033254;28;20235;-16
2022/07/31 06:18:55;;;;;;;4.55;2.80;;;;;;;;;;5033215;28;20227;-16
2022/07/31 06:21:24;;;;;;;3.67;3.20;;;;;;;;;;5034846;28;20239;-16
2022/07/31 06:23:56;;;;;;;3.72;3.08;;;;;;;;;;5034890;28;20289;-16
2022/07/31 06:26:24;;;;;;;6.38;3.40;;;;;;;;;;5033029;28;20227;-16
2022/07/31 06:28:54;;;;;;;5.03;3.58;;;;;;;;;;5033317;28;20234;-16
2022/07/31 06:31:21;;;;;;;4.78;3.40;;;;;;;;;;5032822;28;20710;-16
2022/07/31 06:33:49;;;;;;;6.18;3.60;;;;;;;;;;5031536;28;20717;-16
2022/07/31 06:36:17;;;;;;;7.70;3.50;;;;;;;;;;5032977;28;20400;-16
2022/07/31 06:38:46;;;;;;;5.10;3.30;;;;;;;;;;5033038;28;20253;-16
2022/07/31 06:41:43;;;;;;;5.57;3.78;;;;;;;;;;5033103;28;20322;-16
2022/07/31 06:44:01;;;;;;;5.05;3.55;;;;;;;;;;5025223;28;21055;-16
2022/07/31 06:46:29;;;;;;;8.43;4.32;;;;;;;;;;5030686;28;20231;-16
2022/07/31 06:48:56;;;;;;;4.50;3.72;;;;;;;;;;5032003;28;20234;-16
2022/07/31 06:51:24;;;;;;;6.05;3.67;;;;;;;;;;5032999;28;20246;-15
2022/07/31 06:53:59;;;;;;;5.55;3.85;;;;;;;;;;5033020;28;20231;-16
2022/07/31 06:56:26;;;;;;;7.10;4.50;;;;;;;;;;5031327;28;20728;-16
2022/07/31 06:58:54;;;;;;;4.82;3.85;;;;;;;;;;5032245;28;20223;-16
2022/07/31 07:01:21;;;;;;;8.85;5.00;;;;;;;;;;5032665;28;20594;-16
2022/07/31 07:03:49;;;;;;;6.97;4.38;;;;;;;;;;5032734;28;20231;-16
2022/07/31 07:06:16;;;;;;;7.13;4.03;;;;;;;;;;5032115;28;20227;-16
2022/07/31 07:08:43;;;;;;;4.80;3.95;;;;;;;;;;5032554;28;20235;-16
2022/07/31 07:11:12;;;;;;;8.95;4.47;;;;;;;;;;5032537;28;21020;-16
2022/07/31 07:13:40;;;;;;;6.25;4.32;;;;;;;;;;5032951;28;20237;-16
2022/07/31 07:16:13;;;;;;;8.40;6.10;;;;;;;;;;5031591;28;20230;-16
2022/07/31 07:18:40;;;;;;;8.50;5.97;;;;;;;;;;5032201;28;20690;-16
2022/07/31 07:21:09;;;;;;;8.48;5.32;;;;;;;;;;5032394;28;20334;-16
2022/07/31 07:23:36;;;;;;;8.75;5.72;;;;;;;;;;5031189;28;20239;-16
2022/07/31 07:26:04;;;;;;;9.45;5.07;;;;;;;;;;5031883;28;20329;-16
2022/07/31 07:28:32;;;;;;;7.15;4.63;;;;;;;;;;5031292;28;20239;-16
2022/07/31 07:31:00;;;;;;;8.85;4.70;;;;;;;;;;5032175;28;20246;-16
2022/07/31 07:33:27;;;;;;;10.02;5.72;;;;;;;;;;5032204;28;20304;-16
2022/07/31 07:36:08;;;;;;;9.20;5.15;;;;;;;;;;5032593;28;20327;-16
2022/07/31 07:38:50;;;;;;;7.78;5.05;;;;;;;;;;5031355;28;20230;-16
2022/07/31 07:41:17;;;;;;;8.90;5.40;;;;;;;;;;5032078;28;20998;-16
2022/07/31 07:43:46;;;;;;;6.28;4.78;;;;;;;;;;5032135;28;20233;-16
2022/07/31 07:46:18;;;;;;;8.95;4.72;;;;;;;;;;5031668;28;20235;-16
2022/07/31 07:48:46;;;;;;;7.43;4.63;;;;;;;;;;5031369;28;20231;-16
2022/07/31 07:51:13;;;;;;;6.55;4.20;;;;;;;;;;5028896;28;20243;-16
2022/07/31 07:53:41;;;;;;;5.47;4.85;;;;;;;;;;5031951;28;20222;-16
2022/07/31 07:56:08;;;;;;;8.68;5.53;;;;;;;;;;5021425;28;20242;-16
2022/07/31 07:58:35;;;;;;;11.30;5.88;;;;;;;;;;5031657;28;20706;-16
2022/07/31 08:01:04;;;;;;;7.30;5.35;;;;;;;;;;5030836;28;20717;-16
2022/07/31 08:03:32;;;;;;;7.43;5.05;;;;;;;;;;5031720;28;20244;-16
2022/07/31 08:06:17;;;;;;;8.63;4.20;;;;;;;;;;5031780;28;20309;-16
2022/07/31 08:08:45;;;;;;;6.95;4.97;;;;;;;;;;5031596;28;20721;-16
2022/07/31 08:11:12;;;;;;;6.65;4.53;;;;;;;;;;5029975;28;20739;-16
2022/07/31 08:13:43;;;;;;;6.68;4.70;;;;;;;;;;5028801;28;20326;-16
2022/07/31 08:16:18;;;;;;;9.05;6.15;;;;;;;;;;5031275;28;21041;-16
2022/07/31 08:18:45;;;;;;;6.53;4.85;;;;;;;;;;5031362;28;20259;-15
2022/07/31 08:21:13;;;;;;;8.23;5.63;;;;;;;;;;5031555;28;20341;-15
2022/07/31 08:23:41;;;;;;;7.55;5.10;;;;;;;;;;5030576;28;20246;-16
2022/07/31 08:26:08;;;;;;;5.50;4.15;;;;;;;;;;5030956;28;20229;-16
2022/07/31 08:28:35;;;;;;;6.30;4.90;;;;;;;;;;5031112;28;20694;-16
2022/07/31 08:31:03;;;;;;;6.22;5.45;;;;;;;;;;5031150;28;20807;-16
2022/07/31 08:33:32;;;;;;;8.10;5.07;;;;;;;;;;5030812;28;20222;-16
2022/07/31 08:36:00;;;;;;;5.72;4.88;;;;;;;;;;5031361;28;20235;-15
2022/07/31 08:38:28;;;;;;;7.80;4.90;;;;;;;;;;5030800;28;20259;-16
2022/07/31 08:40:55;;;;;;;4.80;3.88;;;;;;;;;;5031632;28;20223;-15
2022/07/31 08:43:22;;;;;;;7.18;4.00;;;;;;;;;;5030956;28;20241;-15
2022/07/31 08:46:10;;;;;;;5.18;4.25;;;;;;;;;;5030110;28;20701;-16
2022/07/31 08:48:39;;;;;;;7.85;5.25;;;;;;;;;;5031093;28;20245;-16
2022/07/31 08:51:07;;;;;;;7.13;5.15;;;;;;;;;;5030899;28;20988;-16
2022/07/31 08:53:34;;;;;;;5.53;4.90;;;;;;;;;;5017117;28;20265;-16
2022/07/31 08:56:02;;;;;;;6.10;4.93;;;;;;;;;;5019459;28;20239;-16
2022/07/31 08:58:29;;;;;;;5.90;5.00;;;;;;;;;;5018153;28;20230;-16
2022/07/31 09:00:59;;;;;;;8.15;4.72;;;;;;;;;;5030635;28;20231;-16
2022/07/31 09:03:26;;;;;;;7.82;4.63;;;;;;;;;;5030511;28;20246;-16
2022/07/31 09:05:55;;;;;;;8.15;5.07;;;;;;;;;;5030724;28;20230;-16
2022/07/31 09:08:22;;;;;;;7.85;4.57;;;;;;;;;;5030361;28;20234;-16
2022/07/31 09:11:00;;;;;;;6.18;4.78;;;;;;;;;;5030537;28;20230;-16
2022/07/31 09:13:28;;;;;;;7.80;4.10;;;;;;;;;;5030811;28;20694;-16
2022/07/31 09:15:57;;;;;;;8.13;4.57;;;;;;;;;;5030736;28;20241;-16
2022/07/31 09:18:24;;;;;;;6.85;4.88;;;;;;;;;;5029526;28;20615;-16
2022/07/31 09:20:57;;;;;;;8.73;4.05;;;;;;;;;;5030752;28;20721;-16
2022/07/31 09:23:25;;;;;;;5.97;4.20;;;;;;;;;;5030168;28;20243;-16
2022/07/31 09:25:53;;;;;;;5.53;3.75;;;;;;;;;;5027205;28;20257;-16
2022/07/31 09:28:20;;;;;;;7.80;4.93;;;;;;;;;;5025276;28;20235;-16
2022/07/31 09:30:54;;;;;;;8.60;4.35;;;;;;;;;;5030657;28;20526;-16
2022/07/31 09:33:23;;;;;;;6.70;4.07;;;;;;;;;;5030369;28;20234;-16
2022/07/31 09:35:51;;;;;;;5.55;3.78;;;;;;;;;;5030808;28;20235;-16
2022/07/31 09:38:19;;;;;;;5.47;4.25;;;;;;;;;;5016818;28;20234;-16
2022/07/31 09:40:49;;;;;;;5.63;3.88;;;;;;;;;;5029182;28;20313;-16
2022/07/31 09:43:24;;;;;;;10.60;3.97;;;;;;;;;;5030375;28;20243;-16
2022/07/31 09:45:57;;;;;;;7.55;4.45;;;;;;;;;;5030136;28;20231;-15
2022/07/31 09:48:25;;;;;;;12.48;5.85;;;;;;;;;;5030626;28;21045;-16
2022/07/31 09:50:55;;;;;;;6.50;4.10;;;;;;;;;;5023515;28;20235;-16
2022/07/31 09:53:23;;;;;;;9.00;4.75;;;;;;;;;;5027907;28;20227;-16
2022/07/31 09:55:51;;;;;;;8.95;4.18;;;;;;;;;;5028881;28;20262;-16
2022/07/31 09:58:18;;;;;;;8.15;4.18;;;;;;;;;;5030116;28;20230;-16
2022/07/31 10:00:46;;;;;;;6.30;3.50;;;;;;;;;;5030224;28;20237;-16
2022/07/31 10:03:13;;;;;;;5.68;4.10;;;;;;;;;;5027860;28;20243;-16
2022/07/31 10:05:41;;;;;;;5.07;3.42;;;;;;;;;;5030224;28;20231;-16
2022/07/31 10:08:08;;;;;;;3.63;3.20;;;;;;;;;;5029746;28;20235;-16
2022/07/31 10:10:37;;;;;;;7.25;3.45;;;;;;;;;;5016886;28;20691;-16
2022/07/31 10:13:06;;;;;;;7.78;4.32;;;;;;;;;;5029273;28;20242;-16
2022/07/31 10:15:34;;;;;;;3.60;3.30;;;;;;;;;;5029363;28;20239;-16
2022/07/31 10:18:01;;;;;;;6.05;3.60;;;;;;;;;;5029912;28;20235;-16
2022/07/31 10:20:29;;;;;;;5.53;2.90;;;;;;;;;;5030080;28;20262;-15
2022/07/31 10:22:58;;;;;;;5.10;3.20;;;;;;;;;;5029719;28;20254;-16
2022/07/31 10:25:27;;;;;;;6.13;3.40;;;;;;;;;;5024752;28;20274;-16
2022/07/31 10:27:56;;;;;;;4.43;3.30;;;;;;;;;;5034033;28;20666;-15
2022/07/31 10:30:24;;;;;;;7.50;3.47;;;;;;;;;;5033727;28;20235;-15
2022/07/31 10:32:58;;;;;;;5.93;3.42;;;;;;;;;;5030656;28;20290;-15
2022/07/31 10:35:25;;;;;;;6.97;3.78;;;;;;;;;;5032174;28;20615;-16
2022/07/31 10:37:53;;;;;;;7.90;3.78;;;;;;;;;;5032733;28;20281;-15
2022/07/31 10:40:23;;;;;;;4.97;3.53;;;;;;;;;;5033155;28;20237;-15
2022/07/31 10:42:52;;;;;;;4.20;3.80;;;;;;;;;;5032119;28;20712;-15
2022/07/31 10:45:22;;;;;;;7.05;4.03;;;;;;;;;;5032017;28;20313;-16
2022/07/31 10:47:53;;;;;;;6.95;4.63;;;;;;;;;;5029881;28;21000;-15
2022/07/31 10:50:21;;;;;;;5.47;4.00;;;;;;;;;;5032011;28;20238;-15
2022/07/31 10:52:48;;;;;;;6.65;4.03;;;;;;;;;;5031924;28;20246;-15
2022/07/31 10:55:16;;;;;;;6.00;4.20;;;;;;;;;;5031318;28;20238;-15
2022/07/31 10:57:43;;;;;;;6.43;4.88;;;;;;;;;;5031389;28;20253;-15
2022/07/31 11:00:25;;;;;;;10.30;4.25;;;;;;;;;;5025984;28;21069;-16
2022/07/31 11:02:56;;;;;;;7.70;5.38;;;;;;;;;;5027380;28;20231;-15
2022/07/31 11:05:26;;;;;;;8.80;4.63;;;;;;;;;;5024571;28;21002;-15
2022/07/31 11:07:59;;;;;;;10.02;5.57;;;;;;;;;;5025469;28;20238;-15
2022/07/31 11:10:26;;;;;;;10.05;5.10;;;;;;;;;;5029641;28;20234;-15
2022/07/31 11:13:00;;;;;;;10.95;5.15;;;;;;;;;;5026991;28;20242;-15
2022/07/31 11:15:29;;;;;;;10.00;4.88;;;;;;;;;;5030091;28;20235;-15
2022/07/31 11:17:56;;;;;;;5.15;4.53;;;;;;;;;;5025589;28;20710;-15
2022/07/31 11:20:46;;;;;;;7.20;4.57;;;;;;;;;;5028067;28;20234;-15
2022/07/31 11:23:15;;;;;;;6.70;5.38;;;;;;;;;;5027564;28;20243;-15
2022/07/31 11:25:43;;;;;;;8.88;4.85;;;;;;;;;;5028256;28;20227;-15
2022/07/31 11:28:11;;;;;;;9.80;4.90;;;;;;;;;;5028856;28;20231;-15
2022/07/31 11:30:49;;;;;;;10.77;4.93;;;;;;;;;;5029419;28;20241;-15
2022/07/31 11:33:27;;;;;;;6.80;5.15;;;;;;;;;;5021951;28;20260;-15
2022/07/31 11:35:57;;;;;;;10.68;5.40;;;;;;;;;;5028497;28;20694;-15
2022/07/31 11:38:28;;;;;;;10.05;5.40;;;;;;;;;;5030060;28;20721;-15
2022/07/31 11:40:55;;;;;;;8.27;5.55;;;;;;;;;;5028728;28;20235;-15
2022/07/31 11:43:24;;;;;;;11.82;5.90;;;;;;;;;;5029196;28;20235;-16
2022/07/31 11:45:54;;;;;;;11.52;5.80;;;;;;;;;;5028999;28;20257;-15
2022/07/31 11:48:22;;;;;;;8.10;5.72;;;;;;;;;;5024154;28;20241;-16
2022/07/31 11:50:54;;;;;;;8.50;5.28;;;;;;;;;;5026244;28;20239;-15
2022/07/31 11:53:21;;;;;;;9.55;5.05;;;;;;;;;;5028097;28;20243;-15
2022/07/31 11:55:49;;;;;;;7.25;5.45;;;;;;;;;;5025906;28;20239;-15
2022/07/31 11:58:16;;;;;;;8.57;5.18;;;;;;;;;;5027427;28;20707;-15
2022/07/31 12:00:48;;;;;;;9.43;5.22;;;;;;;;;;5027095;28;20239;-15
2022/07/31 12:03:17;;;;;;;10.13;5.30;;;;;;;;;;5026857;28;20241;-15
2022/07/31 12:05:45;;;;;;;11.30;5.70;;;;;;;;;;5027063;28;20281;-15
2022/07/31 12:08:12;;;;;;;7.22;5.45;;;;;;;;;;5026761;28;20241;-14
2022/07/31 12:10:40;;;;;;;9.15;5.82;;;;;;;;;;5025600;28;20235;-14
2022/07/31 12:13:10;;;;;;;8.88;5.45;;;;;;;;;;5027427;28;21063;-14
2022/07/31 12:15:42;;;;;;;6.40;5.25;;;;;;;;;;5026200;28;20238;-15
2022/07/31 12:18:09;;;;;;;8.50;6.00;;;;;;;;;;5027247;28;20234;-14
2022/07/31 12:20:38;;;;;;;7.85;5.82;;;;;;;;;;5031410;28;20322;-15
2022/07/31 12:23:05;;;;;;;12.38;5.47;;;;;;;;;;5027234;28;20259;-14
2022/07/31 12:25:53;;;;;;;8.43;6.15;;;;;;;;;;5025702;28;20988;-14
2022/07/31 12:28:20;;;;;;;8.10;6.38;;;;;;;;;;5030062;28;20233;-14
2022/07/31 12:30:56;;;;;;;10.23;6.25;;;;;;;;;;5031434;28;20261;-14
2022/07/31 12:33:24;;;;;;;7.15;6.45;;;;;;;;;;5030262;28;20294;-14
2022/07/31 12:35:52;;;;;;;10.32;6.07;;;;;;;;;;5029004;28;20230;-14
2022/07/31 12:38:23;;;;;;;5.75;5.22;;;;;;;;;;5030749;28;20307;-14
2022/07/31 12:41:09;;;;;;;12.35;5.93;;;;;;;;;;5029431;28;20230;-14
2022/07/31 12:43:40;;;;;;;6.25;5.50;;;;;;;;;;5029734;28;20257;-14
2022/07/31 12:46:19;;;;;;;10.43;5.60;;;;;;;;;;5028067;28;20293;-14
2022/07/31 12:48:46;;;;;;;11.68;5.50;;;;;;;;;;5030425;28;20988;-14
2022/07/31 12:51:18;;;;;;;7.22;5.70;;;;;;;;;;5034026;28;20239;-14
2022/07/31 12:54:06;;;;;;;7.85;5.78;;;;;;;;;;5029815;28;20245;-14
2022/07/31 12:56:33;;;;;;;12.60;6.85;;;;;;;;;;5030567;28;20227;-14
2022/07/31 12:59:01;;;;;;;8.05;6.93;;;;;;;;;;5029678;28;20308;-14
2022/07/31 13:01:31;;;;;;;8.90;7.45;;;;;;;;;;5031459;28;20234;-14
2022/07/31 13:03:59;;;;;;;8.35;6.40;;;;;;;;;;5030249;28;20227;-14
2022/07/31 13:06:30;;;;;;;12.45;7.05;;;;;;;;;;5026041;28;20233;-14
2022/07/31 13:08:58;;;;;;;15.75;6.88;;;;;;;;;;5030335;28;20222;-14
2022/07/31 13:11:27;;;;;;;9.80;7.57;;;;;;;;;;5034282;28;20316;-14
2022/07/31 13:13:56;;;;;;;14.10;6.72;;;;;;;;;;5034346;28;20239;-14
2022/07/31 13:16:23;;;;;;;12.00;6.88;;;;;;;;;;5030629;28;20239;-15
2022/07/31 13:18:53;;;;;;;16.42;6.63;;;;;;;;;;5024844;28;20304;-14
2022/07/31 13:21:21;;;;;;;12.00;7.10;;;;;;;;;;5030216;28;20237;-14
2022/07/31 13:23:49;;;;;;;16.92;7.75;;;;;;;;;;5030588;28;20257;-15
2022/07/31 13:26:22;;;;;;;12.57;6.88;;;;;;;;;;5031350;28;20289;-15
2022/07/31 13:28:49;;;;;;;9.70;6.75;;;;;;;;;;5031367;28;20231;-15
2022/07/31 13:31:17;;;;;;;10.93;7.32;;;;;;;;;;5029908;28;20231;-15
2022/07/31 13:33:47;;;;;;;10.63;7.28;;;;;;;;;;5027527;28;21044;-15
2022/07/31 13:36:15;;;;;;;8.88;7.32;;;;;;;;;;5027219;28;20777;-15
2022/07/31 13:38:42;;;;;;;9.35;7.35;;;;;;;;;;5030071;28;20242;-15
2022/07/31 13:43:52;;;;;;;8.25;6.85;;;;;;;;;;5018707;28;20227;-14
2022/07/31 13:46:28;;;;;;;7.65;6.82;;;;;;;;;;5030571;28;20245;-15
2022/07/31 13:48:57;;;;;;;11.75;6.93;;;;;;;;;;5030392;28;20698;-15
2022/07/31 13:51:25;;;;;;;10.43;7.13;;;;;;;;;;5021334;28;20231;-15
2022/07/31 13:53:55;;;;;;;10.20;6.93;;;;;;;;;;5022779;28;20269;-15
2022/07/31 13:56:24;;;;;;;8.07;6.75;;;;;;;;;;5030234;28;20231;-15
2022/07/31 13:59:09;;;;;;;11.07;6.55;;;;;;;;;;5022783;28;20239;-15
2022/07/31 14:01:37;;;;;;;7.28;6.47;;;;;;;;;;5033594;28;20238;-15
2022/07/31 14:04:29;;;;;;;8.73;7.28;;;;;;;;;;5032436;28;20241;-15
2022/07/31 14:07:05;;;;;;;7.47;6.63;;;;;;;;;;5033623;28;21127;-15
2022/07/31 14:09:34;;;;;;;9.15;6.93;;;;;;;;;;5033816;28;21003;-15
2022/07/31 14:12:03;;;;;;;7.88;7.18;;;;;;;;;;5033737;28;20234;-15
2022/07/31 14:14:32;;;;;;;9.40;6.50;;;;;;;;;;5033023;28;20257;-15
2022/07/31 14:16:59;;;;;;;7.22;5.97;;;;;;;;;;5033565;28;20836;-15
2022/07/31 14:19:27;;;;;;;6.65;5.95;;;;;;;;;;5033541;28;20370;-15
2022/07/31 14:21:54;;;;;;;8.88;6.53;;;;;;;;;;5033720;28;20241;-15
2022/07/31 14:24:23;;;;;;;6.50;5.93;;;;;;;;;;5020907;28;20243;-15
2022/07/31 14:26:50;;;;;;;7.05;6.25;;;;;;;;;;5032965;28;20689;-15
2022/07/31 14:29:19;;;;;;;10.07;6.50;;;;;;;;;;5032581;28;21064;-15
2022/07/31 14:31:47;;;;;;;6.65;5.97;;;;;;;;;;5033562;28;20253;-15
2022/07/31 14:34:14;;;;;;;7.15;5.80;;;;;;;;;;5033167;28;20764;-15
2022/07/31 14:36:41;;;;;;;6.72;6.03;;;;;;;;;;5032493;28;20235;-15
2022/07/31 14:39:09;;;;;;;6.85;6.10;;;;;;;;;;5033087;28;20235;-15
2022/07/31 14:41:36;;;;;;;6.65;5.80;;;;;;;;;;5033274;28;20237;-15
2022/07/31 14:44:04;;;;;;;7.57;5.85;;;;;;;;;;5033218;28;20233;-15
2022/07/31 14:46:32;;;;;;;8.18;6.22;;;;;;;;;;5033161;28;20235;-15
2022/07/31 14:49:01;;;;;;;6.57;5.88;;;;;;;;;;5032528;28;21086;-15
2022/07/31 14:51:28;;;;;;;6.80;5.60;;;;;;;;;;5033011;28;20227;-15
2022/07/31 14:53:56;;;;;;;7.18;6.43;;;;;;;;;;5029857;28;20231;-15